createdAt,value
2022-10-17T00:00:58.699Z,0
2022-10-17T00:02:15.804Z,0
2022-10-17T00:03:32.908Z,0
2022-10-17T00:04:50.012Z,0
2022-10-17T00:06:07.117Z,0
2022-10-17T00:07:24.221Z,0
2022-10-17T00:08:41.325Z,0
2022-10-17T00:09:57.446Z,0
2022-10-17T00:11:14.550Z,0
2022-10-17T00:12:31.654Z,0
2022-10-17T00:13:48.759Z,0
2022-10-17T00:15:05.864Z,0
2022-10-17T00:16:22.968Z,0
2022-10-17T00:17:40.072Z,0
2022-10-17T00:18:57.177Z,0
2022-10-17T00:20:14.281Z,0
2022-10-17T00:21:31.386Z,0
2022-10-17T00:22:48.490Z,0
2022-10-17T00:24:05.595Z,0
2022-10-17T00:25:22.699Z,0
2022-10-17T00:26:38.820Z,0
2022-10-17T00:27:55.924Z,0
2022-10-17T00:29:13.029Z,0
2022-10-17T00:30:30.133Z,0
2022-10-17T00:31:47.238Z,0
2022-10-17T00:33:04.342Z,0
2022-10-17T00:34:21.446Z,0
2022-10-17T00:35:38.551Z,0
2022-10-17T00:36:55.655Z,0
2022-10-17T00:38:12.759Z,0
2022-10-17T00:39:29.864Z,0
2022-10-17T00:40:46.968Z,0
2022-10-17T00:42:04.072Z,0
2022-10-17T00:43:20.193Z,0
2022-10-17T00:44:37.297Z,0
2022-10-17T00:45:54.401Z,0
2022-10-17T00:47:11.506Z,0
2022-10-17T00:48:28.610Z,0
2022-10-17T00:49:45.714Z,0
2022-10-17T00:51:02.819Z,0
2022-10-17T00:52:19.921Z,0
2022-10-17T00:53:37.026Z,0
2022-10-17T00:54:54.130Z,0
2022-10-17T00:56:11.234Z,0
2022-10-17T00:57:28.339Z,0
2022-10-17T00:58:45.443Z,0
2022-10-17T01:00:01.564Z,0
2022-10-17T01:01:18.668Z,0
2022-10-17T01:02:35.773Z,0
2022-10-17T01:03:52.877Z,0
2022-10-17T01:05:09.981Z,0
2022-10-17T01:06:27.086Z,0
2022-10-17T01:07:44.190Z,0
2022-10-17T01:09:01.296Z,0
2022-10-17T01:10:18.400Z,0
2022-10-17T01:11:35.505Z,0
2022-10-17T01:12:52.609Z,0
2022-10-17T01:14:09.713Z,0
2022-10-17T01:15:26.818Z,0
2022-10-17T01:16:42.939Z,0
2022-10-17T01:18:00.043Z,0
2022-10-17T01:19:17.147Z,0
2022-10-17T01:20:34.252Z,0
2022-10-17T01:21:51.355Z,0
2022-10-17T01:23:08.459Z,0
2022-10-17T01:24:25.563Z,0
2022-10-17T01:25:42.667Z,0
2022-10-17T01:26:59.772Z,0
2022-10-17T01:28:16.876Z,0
2022-10-17T01:29:33.981Z,0
2022-10-17T01:30:51.085Z,0
2022-10-17T01:32:08.188Z,0
2022-10-17T01:33:24.308Z,0
2022-10-17T01:34:41.413Z,0
2022-10-17T01:35:58.517Z,0
2022-10-17T01:37:15.622Z,0
2022-10-17T01:38:32.726Z,0
2022-10-17T01:39:49.832Z,0
2022-10-17T01:41:05.952Z,0
2022-10-17T01:42:23.057Z,0
2022-10-17T01:43:40.162Z,0
2022-10-17T01:44:57.266Z,0
2022-10-17T01:46:14.371Z,0
2022-10-17T01:47:31.476Z,0
2022-10-17T01:48:48.580Z,0
2022-10-17T01:50:05.685Z,0
2022-10-17T01:51:22.789Z,0
2022-10-17T01:52:39.894Z,0
2022-10-17T01:53:56.999Z,0
2022-10-17T01:55:14.103Z,0
2022-10-17T01:56:31.207Z,0
2022-10-17T01:57:47.328Z,0
2022-10-17T01:59:04.432Z,0
2022-10-17T02:00:21.537Z,0
2022-10-17T02:01:38.641Z,0
2022-10-17T02:02:55.745Z,0
2022-10-17T02:04:12.850Z,0
2022-10-17T02:05:29.954Z,0
2022-10-17T02:06:47.059Z,0
2022-10-17T02:08:04.163Z,0
2022-10-17T02:09:21.268Z,0
2022-10-17T02:10:38.372Z,0
2022-10-17T02:11:55.476Z,0
2022-10-17T02:13:12.581Z,0
2022-10-17T02:14:28.701Z,0
2022-10-17T02:15:45.806Z,0
2022-10-17T02:17:02.910Z,0
2022-10-17T02:18:20.015Z,0
2022-10-17T02:19:37.119Z,0
2022-10-17T02:20:54.224Z,0
2022-10-17T02:22:11.328Z,0
2022-10-17T02:23:28.433Z,0
2022-10-17T02:24:45.537Z,0
2022-10-17T02:26:02.641Z,0
2022-10-17T02:27:19.746Z,0
2022-10-17T02:28:36.850Z,0
2022-10-17T02:29:53.954Z,0
2022-10-17T02:31:10.075Z,0
2022-10-17T02:32:27.179Z,0
2022-10-17T02:33:44.283Z,0
2022-10-17T02:35:01.388Z,0
2022-10-17T02:36:18.492Z,0
2022-10-17T02:37:35.596Z,0
2022-10-17T02:38:52.701Z,0
2022-10-17T02:40:09.805Z,0
2022-10-17T02:41:26.909Z,0
2022-10-17T02:42:44.013Z,0
2022-10-17T02:44:01.118Z,0
2022-10-17T02:45:18.222Z,0
2022-10-17T02:46:35.327Z,0
2022-10-17T02:47:51.447Z,0
2022-10-17T02:49:08.552Z,0
2022-10-17T02:50:25.656Z,0
2022-10-17T02:51:42.760Z,0
2022-10-17T02:52:59.865Z,0
2022-10-17T02:54:16.969Z,0
2022-10-17T02:55:34.073Z,0
2022-10-17T02:56:51.178Z,0
2022-10-17T02:58:08.282Z,0
2022-10-17T02:59:25.386Z,0
2022-10-17T03:00:42.491Z,0
2022-10-17T03:01:59.596Z,0
2022-10-17T03:03:16.700Z,0
2022-10-17T03:04:32.820Z,0
2022-10-17T03:05:49.924Z,0
2022-10-17T03:07:07.029Z,0
2022-10-17T03:08:24.133Z,0
2022-10-17T03:09:41.238Z,0
2022-10-17T03:10:58.342Z,0
2022-10-17T03:12:15.447Z,0
2022-10-17T03:13:32.552Z,0
2022-10-17T03:14:49.656Z,0
2022-10-17T03:16:06.760Z,0
2022-10-17T03:17:23.864Z,0
2022-10-17T03:18:40.969Z,0
2022-10-17T03:19:58.073Z,0
2022-10-17T03:21:14.193Z,0
2022-10-17T03:22:31.298Z,0
2022-10-17T03:23:48.402Z,0
2022-10-17T03:25:05.507Z,0
2022-10-17T03:26:22.611Z,0
2022-10-17T03:27:39.715Z,0
2022-10-17T03:28:56.820Z,0
2022-10-17T03:30:13.924Z,0
2022-10-17T03:31:31.028Z,0
2022-10-17T03:32:48.132Z,0
2022-10-17T03:34:05.237Z,0
2022-10-17T03:35:22.341Z,0
2022-10-17T03:36:39.445Z,0
2022-10-17T03:37:55.566Z,0
2022-10-17T03:39:12.670Z,0
2022-10-17T03:40:29.775Z,0
2022-10-17T03:41:46.879Z,0
2022-10-17T03:43:03.984Z,0
2022-10-17T03:44:21.088Z,0
2022-10-17T03:45:38.193Z,0
2022-10-17T03:46:55.297Z,0
2022-10-17T03:48:12.401Z,0
2022-10-17T03:49:29.505Z,0
2022-10-17T03:50:46.610Z,0
2022-10-17T03:52:03.714Z,0
2022-10-17T03:53:20.819Z,0
2022-10-17T03:54:36.939Z,0
2022-10-17T03:55:54.043Z,0
2022-10-17T03:57:11.148Z,0
2022-10-17T03:58:28.252Z,0
2022-10-17T03:59:45.357Z,0
2022-10-17T04:01:02.461Z,0
2022-10-17T04:02:19.566Z,0
2022-10-17T04:03:36.670Z,0
2022-10-17T04:04:53.774Z,0
2022-10-17T04:06:10.879Z,0
2022-10-17T04:07:27.983Z,0
2022-10-17T04:08:45.088Z,0
2022-10-17T04:10:02.192Z,0
2022-10-17T04:11:18.312Z,0
2022-10-17T04:12:35.417Z,0
2022-10-17T04:13:52.521Z,0
2022-10-17T04:15:09.625Z,0
2022-10-17T04:16:26.729Z,0
2022-10-17T04:17:43.833Z,0
2022-10-17T04:19:00.938Z,0
2022-10-17T04:20:18.042Z,0
2022-10-17T04:21:35.146Z,0
2022-10-17T04:22:52.250Z,0
2022-10-17T04:24:09.356Z,0
2022-10-17T04:25:26.460Z,0
2022-10-17T04:26:43.564Z,0
2022-10-17T04:27:59.685Z,0
2022-10-17T04:29:16.789Z,0
2022-10-17T04:30:33.894Z,0
2022-10-17T04:31:50.998Z,0
2022-10-17T04:33:08.103Z,0
2022-10-17T04:34:25.207Z,0
2022-10-17T04:35:42.311Z,0
2022-10-17T04:36:59.415Z,0
2022-10-17T04:38:16.520Z,0
2022-10-17T04:39:33.624Z,0
2022-10-17T04:40:50.729Z,0
2022-10-17T04:42:07.833Z,0
2022-10-17T04:43:24.937Z,0
2022-10-17T04:44:41.058Z,0
2022-10-17T04:45:58.162Z,0
2022-10-17T04:47:15.266Z,0
2022-10-17T04:48:32.371Z,0
2022-10-17T04:49:49.475Z,0
2022-10-17T04:51:06.580Z,0
2022-10-17T04:52:23.684Z,0
2022-10-17T04:53:40.789Z,0
2022-10-17T04:54:57.893Z,0
2022-10-17T04:56:14.998Z,0
2022-10-17T04:57:32.102Z,0
2022-10-17T04:58:49.206Z,0
2022-10-17T05:00:06.310Z,0
2022-10-17T05:01:22.431Z,0
2022-10-17T05:02:39.535Z,0
2022-10-17T05:03:56.640Z,0
2022-10-17T05:05:13.744Z,0
2022-10-17T05:06:30.849Z,0
2022-10-17T05:07:47.953Z,0
2022-10-17T05:09:05.057Z,0
2022-10-17T05:10:22.161Z,0
2022-10-17T05:11:39.266Z,0
2022-10-17T05:12:56.370Z,0
2022-10-17T05:14:13.474Z,0
2022-10-17T05:15:30.579Z,0
2022-10-17T05:16:47.683Z,0
2022-10-17T05:18:03.803Z,0
2022-10-17T05:19:20.907Z,0
2022-10-17T05:20:38.011Z,0
2022-10-17T05:21:55.116Z,0
2022-10-17T05:23:12.220Z,0
2022-10-17T05:24:29.324Z,0
2022-10-17T05:25:46.429Z,0
2022-10-17T05:27:03.534Z,0
2022-10-17T05:28:20.638Z,0
2022-10-17T05:29:37.742Z,0
2022-10-17T05:30:54.846Z,0
2022-10-17T05:32:11.951Z,0
2022-10-17T05:33:29.055Z,0
2022-10-17T05:34:45.175Z,0
2022-10-17T05:36:02.279Z,0
2022-10-17T05:37:19.384Z,0
2022-10-17T05:38:36.488Z,0
2022-10-17T05:39:53.592Z,0
2022-10-17T05:41:10.697Z,0
2022-10-17T05:42:27.801Z,5
2022-10-17T05:43:44.905Z,5
2022-10-17T05:45:02.009Z,5
2022-10-17T05:46:19.113Z,5
2022-10-17T05:47:36.218Z,5
2022-10-17T05:48:53.323Z,11
2022-10-17T05:50:10.427Z,11
2022-10-17T05:51:26.548Z,11
2022-10-17T05:52:43.652Z,11
2022-10-17T05:54:00.757Z,16
2022-10-17T05:55:17.861Z,16
2022-10-17T05:56:34.966Z,22
2022-10-17T05:57:52.070Z,28
2022-10-17T05:59:08.191Z,33
2022-10-17T06:00:25.295Z,39
2022-10-17T06:01:42.400Z,39
2022-10-17T06:02:59.505Z,45
2022-10-17T06:04:16.609Z,50
2022-10-17T06:05:33.713Z,56
2022-10-17T06:06:50.818Z,61
2022-10-17T06:08:07.922Z,67
2022-10-17T06:09:25.026Z,73
2022-10-17T06:10:42.131Z,78
2022-10-17T06:11:59.235Z,90
2022-10-17T06:13:16.340Z,95
2022-10-17T06:14:33.444Z,101
2022-10-17T06:15:49.564Z,112
2022-10-17T06:17:06.669Z,118
2022-10-17T06:18:23.774Z,135
2022-10-17T06:19:40.878Z,146
2022-10-17T06:20:57.983Z,157
2022-10-17T06:22:15.087Z,168
2022-10-17T06:23:32.191Z,180
2022-10-17T06:24:49.296Z,191
2022-10-17T06:26:06.400Z,196
2022-10-17T06:27:23.505Z,208
2022-10-17T06:28:40.609Z,219
2022-10-17T06:29:57.714Z,247
2022-10-17T06:31:14.818Z,343
2022-10-17T06:32:30.939Z,450
2022-10-17T06:33:48.044Z,534
2022-10-17T06:35:05.148Z,568
2022-10-17T06:36:22.253Z,585
2022-10-17T06:37:39.357Z,483
2022-10-17T06:38:56.461Z,264
2022-10-17T06:40:13.565Z,236
2022-10-17T06:41:30.669Z,253
2022-10-17T06:42:47.773Z,365
2022-10-17T06:44:04.877Z,534
2022-10-17T06:45:21.981Z,686
2022-10-17T06:46:39.085Z,658
2022-10-17T06:47:56.189Z,714
2022-10-17T06:49:12.309Z,691
2022-10-17T06:50:29.413Z,708
2022-10-17T06:51:46.517Z,669
2022-10-17T06:53:03.621Z,646
2022-10-17T06:54:20.725Z,556
2022-10-17T06:55:37.829Z,382
2022-10-17T06:56:54.934Z,309
2022-10-17T06:58:12.038Z,309
2022-10-17T06:59:29.142Z,298
2022-10-17T07:00:46.246Z,303
2022-10-17T07:02:03.350Z,309
2022-10-17T07:03:20.454Z,320
2022-10-17T07:04:37.559Z,331
2022-10-17T07:05:53.679Z,337
2022-10-17T07:07:10.784Z,337
2022-10-17T07:08:27.888Z,343
2022-10-17T07:09:44.992Z,393
2022-10-17T07:11:02.096Z,444
2022-10-17T07:12:19.200Z,461
2022-10-17T07:13:36.304Z,444
2022-10-17T07:14:53.408Z,472
2022-10-17T07:16:10.512Z,511
2022-10-17T07:17:27.617Z,495
2022-10-17T07:18:44.721Z,495
2022-10-17T07:20:01.825Z,506
2022-10-17T07:21:18.929Z,511
2022-10-17T07:22:35.050Z,523
2022-10-17T07:23:52.153Z,534
2022-10-17T07:25:09.257Z,585
2022-10-17T07:26:26.361Z,579
2022-10-17T07:27:43.465Z,528
2022-10-17T07:29:00.569Z,540
2022-10-17T07:30:17.673Z,517
2022-10-17T07:31:34.777Z,523
2022-10-17T07:32:51.881Z,579
2022-10-17T07:34:08.986Z,607
2022-10-17T07:35:26.090Z,641
2022-10-17T07:36:43.194Z,630
2022-10-17T07:38:00.298Z,635
2022-10-17T07:39:16.418Z,630
2022-10-17T07:40:33.522Z,646
2022-10-17T07:41:50.626Z,579
2022-10-17T07:43:07.730Z,613
2022-10-17T07:44:24.834Z,680
2022-10-17T07:45:41.938Z,641
2022-10-17T07:46:59.042Z,691
2022-10-17T07:48:16.146Z,630
2022-10-17T07:49:33.250Z,765
2022-10-17T07:50:50.354Z,787
2022-10-17T07:52:07.459Z,781
2022-10-17T07:53:24.563Z,815
2022-10-17T07:54:41.667Z,826
2022-10-17T07:55:57.787Z,781
2022-10-17T07:57:14.891Z,781
2022-10-17T07:58:31.995Z,781
2022-10-17T07:59:49.099Z,781
2022-10-17T08:01:06.203Z,781
2022-10-17T08:02:23.307Z,742
2022-10-17T08:03:40.411Z,714
2022-10-17T08:04:57.515Z,731
2022-10-17T08:06:14.620Z,720
2022-10-17T08:07:31.724Z,736
2022-10-17T08:08:48.828Z,708
2022-10-17T08:10:05.932Z,714
2022-10-17T08:11:23.036Z,714
2022-10-17T08:12:39.157Z,708
2022-10-17T08:13:56.262Z,731
2022-10-17T08:15:13.366Z,703
2022-10-17T08:16:30.470Z,748
2022-10-17T08:17:47.575Z,703
2022-10-17T08:19:04.680Z,680
2022-10-17T08:20:21.784Z,686
2022-10-17T08:21:38.889Z,708
2022-10-17T08:22:55.993Z,691
2022-10-17T08:24:13.097Z,776
2022-10-17T08:25:30.202Z,776
2022-10-17T08:26:47.307Z,708
2022-10-17T08:28:04.411Z,731
2022-10-17T08:29:20.532Z,697
2022-10-17T08:30:37.636Z,691
2022-10-17T08:31:54.741Z,753
2022-10-17T08:33:11.845Z,691
2022-10-17T08:34:28.950Z,714
2022-10-17T08:35:46.054Z,680
2022-10-17T08:37:03.159Z,646
2022-10-17T08:38:20.263Z,697
2022-10-17T08:39:37.368Z,725
2022-10-17T08:40:54.472Z,759
2022-10-17T08:42:11.577Z,669
2022-10-17T08:43:28.681Z,720
2022-10-17T08:44:45.785Z,714
2022-10-17T08:46:01.906Z,736
2022-10-17T08:47:19.010Z,686
2022-10-17T08:48:36.115Z,736
2022-10-17T08:49:53.219Z,697
2022-10-17T08:51:10.323Z,781
2022-10-17T08:52:27.427Z,787
2022-10-17T08:53:44.531Z,742
2022-10-17T08:55:01.635Z,804
2022-10-17T08:56:18.740Z,742
2022-10-17T08:57:35.844Z,714
2022-10-17T08:58:52.948Z,697
2022-10-17T09:00:10.053Z,680
2022-10-17T09:01:27.157Z,680
2022-10-17T09:02:43.278Z,697
2022-10-17T09:04:00.381Z,613
2022-10-17T09:05:17.485Z,596
2022-10-17T09:06:34.589Z,669
2022-10-17T09:07:51.693Z,697
2022-10-17T09:09:08.798Z,708
2022-10-17T09:10:25.902Z,680
2022-10-17T09:11:43.006Z,697
2022-10-17T09:13:00.111Z,708
2022-10-17T09:14:17.215Z,748
2022-10-17T09:15:34.319Z,691
2022-10-17T09:16:51.423Z,478
2022-10-17T09:18:08.528Z,765
2022-10-17T09:19:24.648Z,759
2022-10-17T09:20:41.753Z,708
2022-10-17T09:21:58.857Z,736
2022-10-17T09:23:15.961Z,720
2022-10-17T09:24:33.066Z,736
2022-10-17T09:25:50.170Z,551
2022-10-17T09:27:07.274Z,759
2022-10-17T09:28:24.378Z,708
2022-10-17T09:29:41.483Z,725
2022-10-17T09:30:58.588Z,736
2022-10-17T09:32:15.692Z,562
2022-10-17T09:33:32.796Z,545
2022-10-17T09:34:49.900Z,506
2022-10-17T09:36:06.020Z,534
2022-10-17T09:37:23.125Z,596
2022-10-17T09:38:40.229Z,444
2022-10-17T09:39:57.334Z,613
2022-10-17T09:41:14.438Z,489
2022-10-17T09:42:31.543Z,534
2022-10-17T09:43:48.647Z,489
2022-10-17T09:45:05.751Z,483
2022-10-17T09:46:22.855Z,393
2022-10-17T09:47:39.959Z,388
2022-10-17T09:48:57.063Z,393
2022-10-17T09:50:14.168Z,466
2022-10-17T09:51:31.272Z,438
2022-10-17T09:52:47.392Z,444
2022-10-17T09:54:04.496Z,444
2022-10-17T09:55:21.600Z,545
2022-10-17T09:56:38.704Z,703
2022-10-17T09:57:55.808Z,703
2022-10-17T09:59:12.912Z,697
2022-10-17T10:00:30.016Z,691
2022-10-17T10:01:47.121Z,686
2022-10-17T10:03:04.225Z,691
2022-10-17T10:04:21.329Z,675
2022-10-17T10:05:38.433Z,663
2022-10-17T10:06:55.537Z,652
2022-10-17T10:08:12.641Z,646
2022-10-17T10:09:28.761Z,635
2022-10-17T10:10:45.865Z,630
2022-10-17T10:12:02.969Z,624
2022-10-17T10:13:20.073Z,360
2022-10-17T10:14:37.177Z,466
2022-10-17T10:15:54.282Z,360
2022-10-17T10:17:10.402Z,635
2022-10-17T10:18:27.506Z,618
2022-10-17T10:19:44.610Z,365
2022-10-17T10:21:01.714Z,331
2022-10-17T10:22:18.818Z,360
2022-10-17T10:23:35.922Z,320
2022-10-17T10:24:53.026Z,315
2022-10-17T10:26:10.131Z,450
2022-10-17T10:27:27.235Z,376
2022-10-17T10:28:44.339Z,416
2022-10-17T10:30:01.443Z,534
2022-10-17T10:31:18.547Z,517
2022-10-17T10:32:35.651Z,489
2022-10-17T10:33:51.771Z,556
2022-10-17T10:35:08.876Z,641
2022-10-17T10:36:25.980Z,556
2022-10-17T10:37:43.084Z,438
2022-10-17T10:39:00.188Z,393
2022-10-17T10:40:17.292Z,433
2022-10-17T10:41:34.397Z,556
2022-10-17T10:42:51.501Z,466
2022-10-17T10:44:08.605Z,433
2022-10-17T10:45:25.709Z,489
2022-10-17T10:46:42.000Z,371
2022-10-17T10:47:59.917Z,421
2022-10-17T10:49:17.022Z,455
2022-10-17T10:50:33.142Z,461
2022-10-17T10:51:50.246Z,455
2022-10-17T10:53:07.352Z,438
2022-10-17T10:54:24.456Z,421
2022-10-17T10:55:41.560Z,461
2022-10-17T10:56:58.664Z,450
2022-10-17T10:58:15.768Z,421
2022-10-17T10:59:32.873Z,416
2022-10-17T11:00:49.977Z,399
2022-10-17T11:02:07.081Z,382
2022-10-17T11:03:24.185Z,354
2022-10-17T11:04:41.289Z,331
2022-10-17T11:05:58.393Z,343
2022-10-17T11:07:14.514Z,354
2022-10-17T11:08:31.617Z,421
2022-10-17T11:09:48.721Z,444
2022-10-17T11:11:05.825Z,416
2022-10-17T11:12:22.929Z,461
2022-10-17T11:13:40.033Z,438
2022-10-17T11:14:57.137Z,483
2022-10-17T11:16:14.241Z,500
2022-10-17T11:17:31.345Z,506
2022-10-17T11:18:48.449Z,489
2022-10-17T11:20:05.553Z,444
2022-10-17T11:21:22.657Z,455
2022-10-17T11:22:39.761Z,461
2022-10-17T11:23:55.882Z,472
2022-10-17T11:25:12.986Z,478
2022-10-17T11:26:30.090Z,478
2022-10-17T11:27:47.194Z,517
2022-10-17T11:29:04.298Z,523
2022-10-17T11:30:21.402Z,511
2022-10-17T11:31:38.506Z,556
2022-10-17T11:32:55.610Z,495
2022-10-17T11:34:12.714Z,495
2022-10-17T11:35:29.818Z,483
2022-10-17T11:36:46.922Z,478
2022-10-17T11:38:04.026Z,483
2022-10-17T11:39:21.131Z,478
2022-10-17T11:40:37.251Z,478
2022-10-17T11:41:54.355Z,472
2022-10-17T11:43:11.459Z,438
2022-10-17T11:44:28.563Z,444
2022-10-17T11:45:45.667Z,410
2022-10-17T11:47:02.771Z,416
2022-10-17T11:48:19.876Z,410
2022-10-17T11:49:36.980Z,405
2022-10-17T11:50:54.082Z,405
2022-10-17T11:52:11.186Z,393
2022-10-17T11:53:28.290Z,388
2022-10-17T11:54:45.394Z,365
2022-10-17T11:56:02.499Z,360
2022-10-17T11:57:18.619Z,343
2022-10-17T11:58:35.723Z,326
2022-10-17T11:59:52.827Z,360
2022-10-17T12:01:09.932Z,360
2022-10-17T12:02:27.037Z,388
2022-10-17T12:03:44.141Z,405
2022-10-17T12:05:01.245Z,337
2022-10-17T12:06:18.349Z,348
2022-10-17T12:07:35.454Z,376
2022-10-17T12:08:52.558Z,360
2022-10-17T12:10:09.662Z,281
2022-10-17T12:11:26.766Z,247
2022-10-17T12:12:43.870Z,253
2022-10-17T12:13:59.990Z,281
2022-10-17T12:15:17.094Z,309
2022-10-17T12:16:34.198Z,331
2022-10-17T12:17:51.302Z,371
2022-10-17T12:19:08.407Z,399
2022-10-17T12:20:25.511Z,405
2022-10-17T12:21:42.615Z,416
2022-10-17T12:22:59.719Z,410
2022-10-17T12:24:16.823Z,416
2022-10-17T12:25:33.927Z,416
2022-10-17T12:26:51.031Z,421
2022-10-17T12:28:08.135Z,421
2022-10-17T12:29:25.240Z,427
2022-10-17T12:30:41.360Z,421
2022-10-17T12:31:58.465Z,421
2022-10-17T12:33:15.569Z,433
2022-10-17T12:34:32.673Z,433
2022-10-17T12:35:49.777Z,433
2022-10-17T12:37:06.882Z,427
2022-10-17T12:38:23.986Z,433
2022-10-17T12:39:41.090Z,450
2022-10-17T12:40:58.195Z,455
2022-10-17T12:42:15.299Z,461
2022-10-17T12:43:32.403Z,500
2022-10-17T12:44:49.507Z,472
2022-10-17T12:46:06.611Z,461
2022-10-17T12:47:22.731Z,472
2022-10-17T12:48:39.835Z,438
2022-10-17T12:49:56.939Z,433
2022-10-17T12:51:14.043Z,427
2022-10-17T12:52:31.147Z,421
2022-10-17T12:53:48.251Z,421
2022-10-17T12:55:05.355Z,410
2022-10-17T12:56:22.459Z,405
2022-10-17T12:57:39.564Z,388
2022-10-17T12:58:56.668Z,371
2022-10-17T13:00:13.772Z,354
2022-10-17T13:01:30.876Z,354
2022-10-17T13:02:47.980Z,365
2022-10-17T13:04:04.100Z,382
2022-10-17T13:05:21.204Z,388
2022-10-17T13:06:38.308Z,410
2022-10-17T13:07:55.412Z,416
2022-10-17T13:09:12.516Z,433
2022-10-17T13:10:29.620Z,438
2022-10-17T13:11:46.725Z,455
2022-10-17T13:13:03.829Z,438
2022-10-17T13:14:20.933Z,427
2022-10-17T13:15:38.038Z,416
2022-10-17T13:16:55.142Z,410
2022-10-17T13:18:12.246Z,399
2022-10-17T13:19:29.350Z,410
2022-10-17T13:20:45.470Z,405
2022-10-17T13:22:02.575Z,405
2022-10-17T13:23:19.679Z,393
2022-10-17T13:24:36.783Z,405
2022-10-17T13:25:53.887Z,399
2022-10-17T13:27:10.991Z,388
2022-10-17T13:28:28.096Z,365
2022-10-17T13:29:45.200Z,365
2022-10-17T13:31:02.304Z,365
2022-10-17T13:32:19.408Z,388
2022-10-17T13:33:36.512Z,393
2022-10-17T13:34:53.616Z,388
2022-10-17T13:36:10.721Z,382
2022-10-17T13:37:26.841Z,376
2022-10-17T13:38:43.945Z,365
2022-10-17T13:40:01.049Z,348
2022-10-17T13:41:18.154Z,348
2022-10-17T13:42:35.258Z,348
2022-10-17T13:43:52.362Z,337
2022-10-17T13:45:09.466Z,337
2022-10-17T13:46:26.570Z,315
2022-10-17T13:47:43.674Z,315
2022-10-17T13:49:00.778Z,298
2022-10-17T13:50:17.883Z,292
2022-10-17T13:51:34.987Z,286
2022-10-17T13:52:52.091Z,286
2022-10-17T13:54:08.211Z,270
2022-10-17T13:55:25.315Z,258
2022-10-17T13:56:42.420Z,236
2022-10-17T13:57:59.524Z,225
2022-10-17T13:59:16.628Z,208
2022-10-17T14:00:33.732Z,202
2022-10-17T14:01:50.836Z,202
2022-10-17T14:03:07.941Z,208
2022-10-17T14:04:25.045Z,219
2022-10-17T14:05:42.149Z,230
2022-10-17T14:06:59.253Z,219
2022-10-17T14:08:16.357Z,191
2022-10-17T14:09:33.461Z,157
2022-10-17T14:10:49.582Z,140
2022-10-17T14:12:06.686Z,123
2022-10-17T14:13:23.790Z,106
2022-10-17T14:14:40.894Z,90
2022-10-17T14:15:57.998Z,95
2022-10-17T14:17:15.102Z,90
2022-10-17T14:18:32.206Z,84
2022-10-17T14:19:49.310Z,95
2022-10-17T14:21:06.414Z,101
2022-10-17T14:22:23.518Z,112
2022-10-17T14:23:40.622Z,118
2022-10-17T14:24:57.726Z,129
2022-10-17T14:26:14.830Z,129
2022-10-17T14:27:30.950Z,129
2022-10-17T14:28:48.054Z,135
2022-10-17T14:30:05.157Z,140
2022-10-17T14:31:22.261Z,135
2022-10-17T14:32:39.365Z,129
2022-10-17T14:33:56.469Z,135
2022-10-17T14:35:12.589Z,151
2022-10-17T14:36:29.693Z,168
2022-10-17T14:37:46.797Z,180
2022-10-17T14:39:03.901Z,174
2022-10-17T14:40:21.004Z,157
2022-10-17T14:41:38.108Z,151
2022-10-17T14:42:55.212Z,151
2022-10-17T14:44:12.316Z,146
2022-10-17T14:45:29.420Z,135
2022-10-17T14:46:46.524Z,151
2022-10-17T14:48:03.627Z,146
2022-10-17T14:49:20.731Z,135
2022-10-17T14:50:37.835Z,129
2022-10-17T14:51:53.955Z,123
2022-10-17T14:53:11.059Z,112
2022-10-17T14:54:28.163Z,101
2022-10-17T14:55:45.267Z,101
2022-10-17T14:57:02.371Z,90
2022-10-17T14:58:19.474Z,90
2022-10-17T14:59:36.578Z,95
2022-10-17T15:00:53.682Z,101
2022-10-17T15:02:10.786Z,101
2022-10-17T15:03:27.889Z,90
2022-10-17T15:04:44.993Z,95
2022-10-17T15:06:02.097Z,101
2022-10-17T15:07:19.201Z,112
2022-10-17T15:08:35.321Z,129
2022-10-17T15:09:52.425Z,140
2022-10-17T15:11:09.529Z,135
2022-10-17T15:12:26.633Z,135
2022-10-17T15:13:43.737Z,140
2022-10-17T15:15:00.841Z,140
2022-10-17T15:16:17.944Z,140
2022-10-17T15:17:35.048Z,135
2022-10-17T15:18:52.152Z,129
2022-10-17T15:20:09.256Z,129
2022-10-17T15:21:26.360Z,118
2022-10-17T15:22:43.464Z,90
2022-10-17T15:24:00.568Z,73
2022-10-17T15:25:16.688Z,73
2022-10-17T15:26:33.792Z,73
2022-10-17T15:27:50.896Z,73
2022-10-17T15:29:08.000Z,67
2022-10-17T15:30:25.104Z,61
2022-10-17T15:31:42.208Z,56
2022-10-17T15:32:59.312Z,61
2022-10-17T15:34:16.416Z,61
2022-10-17T15:35:33.520Z,56
2022-10-17T15:36:50.624Z,50
2022-10-17T15:38:07.728Z,50
2022-10-17T15:39:24.833Z,45
2022-10-17T15:40:41.937Z,45
2022-10-17T15:41:58.057Z,45
2022-10-17T15:43:15.162Z,45
2022-10-17T15:44:32.266Z,45
2022-10-17T15:45:49.370Z,45
2022-10-17T15:47:06.474Z,39
2022-10-17T15:48:23.579Z,39
2022-10-17T15:49:40.683Z,39
2022-10-17T15:50:57.788Z,33
2022-10-17T15:52:14.892Z,33
2022-10-17T15:53:31.996Z,33
2022-10-17T15:54:49.100Z,28
2022-10-17T15:56:06.205Z,22
2022-10-17T15:57:23.309Z,22
2022-10-17T15:58:39.429Z,28
2022-10-17T15:59:56.533Z,33
2022-10-17T16:01:13.638Z,33
2022-10-17T16:02:30.742Z,28
2022-10-17T16:03:47.846Z,28
2022-10-17T16:05:04.950Z,28
2022-10-17T16:06:22.054Z,28
2022-10-17T16:07:39.159Z,22
2022-10-17T16:08:56.264Z,22
2022-10-17T16:10:13.368Z,16
2022-10-17T16:11:30.472Z,16
2022-10-17T16:12:47.577Z,16
2022-10-17T16:14:04.681Z,16
2022-10-17T16:15:20.801Z,16
2022-10-17T16:16:37.906Z,16
2022-10-17T16:17:55.010Z,11
2022-10-17T16:19:12.114Z,11
2022-10-17T16:20:29.218Z,11
2022-10-17T16:21:46.322Z,11
2022-10-17T16:23:03.426Z,11
2022-10-17T16:24:20.531Z,5
2022-10-17T16:25:37.635Z,5
2022-10-17T16:26:54.739Z,5
2022-10-17T16:28:11.843Z,5
2022-10-17T16:29:28.948Z,5
2022-10-17T16:30:46.052Z,5
2022-10-17T16:32:02.172Z,0
2022-10-17T16:33:19.276Z,0
2022-10-17T16:34:36.380Z,0
2022-10-17T16:35:53.485Z,0
2022-10-17T16:37:10.589Z,0
2022-10-17T16:38:27.693Z,0
2022-10-17T16:39:44.797Z,0
2022-10-17T16:41:01.901Z,0
2022-10-17T16:42:19.005Z,0
2022-10-17T16:43:36.109Z,0
2022-10-17T16:44:53.213Z,0
2022-10-17T16:46:10.317Z,0
2022-10-17T16:47:27.421Z,0
2022-10-17T16:48:43.541Z,0
2022-10-17T16:50:00.645Z,0
2022-10-17T16:51:17.749Z,0
2022-10-17T16:52:34.853Z,0
2022-10-17T16:53:51.957Z,0
2022-10-17T16:55:09.061Z,0
2022-10-17T16:56:26.165Z,0
2022-10-17T16:57:43.270Z,0
2022-10-17T16:59:00.374Z,0
2022-10-17T17:00:17.478Z,0
2022-10-17T17:01:34.582Z,0
2022-10-17T17:02:51.686Z,0
2022-10-17T17:04:08.791Z,0
2022-10-17T17:05:24.911Z,0
2022-10-17T17:06:42.015Z,0
2022-10-17T17:07:59.119Z,0
2022-10-17T17:09:16.223Z,0
2022-10-17T17:10:33.328Z,0
2022-10-17T17:11:50.432Z,0
2022-10-17T17:13:07.536Z,0
2022-10-17T17:14:24.640Z,0
2022-10-17T17:15:41.744Z,0
2022-10-17T17:16:58.848Z,0
2022-10-17T17:18:15.952Z,0
2022-10-17T17:19:33.056Z,0
2022-10-17T17:20:50.160Z,0
2022-10-17T17:22:06.281Z,0
2022-10-17T17:23:23.385Z,0
2022-10-17T17:24:40.489Z,0
2022-10-17T17:25:57.593Z,0
2022-10-17T17:27:14.697Z,0
2022-10-17T17:28:31.801Z,0
2022-10-17T17:29:48.905Z,0
2022-10-17T17:31:06.010Z,0
2022-10-17T17:32:23.114Z,0
2022-10-17T17:33:40.218Z,0
2022-10-17T17:34:57.322Z,0
2022-10-17T17:36:14.426Z,0
2022-10-17T17:37:31.530Z,0
2022-10-17T17:38:47.651Z,0
2022-10-17T17:40:04.755Z,0
2022-10-17T17:41:21.859Z,0
2022-10-17T17:42:38.963Z,0
2022-10-17T17:43:56.067Z,0
2022-10-17T17:45:13.171Z,0
2022-10-17T17:46:30.275Z,0
2022-10-17T17:47:47.380Z,0
2022-10-17T17:49:04.482Z,0
2022-10-17T17:50:21.586Z,0
2022-10-17T17:51:38.690Z,0
2022-10-17T17:52:55.794Z,0
2022-10-17T17:54:12.898Z,0
2022-10-17T17:55:29.018Z,0
2022-10-17T17:56:46.122Z,0
2022-10-17T17:58:03.226Z,0
2022-10-17T17:59:20.330Z,0
2022-10-17T18:00:37.434Z,0
2022-10-17T18:01:54.538Z,0
2022-10-17T18:03:11.642Z,0
2022-10-17T18:04:28.746Z,0
2022-10-17T18:05:45.850Z,0
2022-10-17T18:07:02.954Z,0
2022-10-17T18:08:20.058Z,0
2022-10-17T18:09:37.162Z,0
2022-10-17T18:10:54.265Z,0
2022-10-17T18:12:10.386Z,0
2022-10-17T18:13:27.489Z,0
2022-10-17T18:14:44.593Z,0
2022-10-17T18:16:01.698Z,0